Time;durP1;ratioP1;P1;durP2;ratioP2;P2;SDS_P1;SDS_P2;PMS_P1;PMS_P2;Temp;Humidity;BMP_temperature;BMP_pressure;BME280_temperature;BME280_humidity;BME280_pressure;Samples;Min_cycle;Max_cycle;Signal;HPM_P1;HPM_P2
2021/05/14 00:01:51;;;;;;;1.30;0.90;;;14.90;99.60;;;;;;4976752;28;20258;-76
2021/05/14 00:04:19;;;;;;;1.67;0.98;;;14.90;99.90;;;;;;4976650;28;20180;-75
2021/05/14 00:06:46;;;;;;;1.60;0.90;;;15.00;99.90;;;;;;4959026;28;20180;-75
2021/05/14 00:09:13;;;;;;;2.20;0.90;;;15.00;99.90;;;;;;4959287;28;20222;-75
2021/05/14 00:11:39;;;;;;;3.17;0.85;;;15.00;99.90;;;;;;4976443;28;20168;-75
2021/05/14 00:14:05;;;;;;;2.05;0.80;;;15.10;99.90;;;;;;4976409;28;20202;-75
2021/05/14 00:16:31;;;;;;;1.65;0.80;;;15.10;99.90;;;;;;4976256;28;20172;-75
2021/05/14 00:18:57;;;;;;;2.03;1.00;;;15.10;99.90;;;;;;4959029;28;20188;-75
2021/05/14 00:21:22;;;;;;;1.30;0.80;;;15.10;99.90;;;;;;4959030;28;20172;-75
2021/05/14 00:23:48;;;;;;;2.07;0.80;;;15.10;99.90;;;;;;4976489;28;20168;-76
2021/05/14 00:26:14;;;;;;;1.30;0.90;;;15.20;99.90;;;;;;4976412;28;20730;-75
2021/05/14 00:28:39;;;;;;;1.30;0.70;;;15.20;99.90;;;;;;4975849;28;20214;-75
2021/05/14 00:31:05;;;;;;;2.00;0.93;;;15.20;99.90;;;;;;4976461;28;20992;-75
2021/05/14 00:33:31;;;;;;;1.40;0.80;;;15.20;99.90;;;;;;4958759;28;20176;-75
2021/05/14 00:35:57;;;;;;;1.40;0.80;;;15.20;99.90;;;;;;4943033;28;21134;-74
2021/05/14 00:38:22;;;;;;;3.33;0.80;;;15.20;99.90;;;;;;4942641;28;20766;-75
2021/05/14 00:40:48;;;;;;;1.43;0.70;;;15.20;99.90;;;;;;4943263;28;20644;-75
2021/05/14 00:43:14;;;;;;;1.97;0.90;;;15.10;99.90;;;;;;4976483;28;20172;-75
2021/05/14 00:45:40;;;;;;;1.27;0.77;;;15.10;99.90;;;;;;4961406;28;20179;-75
2021/05/14 00:48:06;;;;;;;2.27;0.77;;;15.10;99.90;;;;;;4976147;28;20191;-75
2021/05/14 00:50:31;;;;;;;2.30;0.80;;;15.00;99.90;;;;;;4942853;28;20180;-75
2021/05/14 00:52:57;;;;;;;1.40;1.00;;;15.00;99.90;;;;;;4958788;28;20937;-75
2021/05/14 00:55:23;;;;;;;1.83;1.20;;;15.00;99.90;;;;;;4976031;28;20222;-75
2021/05/14 00:57:49;;;;;;;1.83;1.10;;;14.90;99.90;;;;;;4994648;23;20677;-76
2021/05/14 01:00:15;;;;;;;1.40;1.20;;;14.90;99.90;;;;;;4991322;28;20590;-76
2021/05/14 01:02:41;;;;;;;2.05;1.42;;;14.90;99.90;;;;;;4976578;28;20575;-76
2021/05/14 01:05:07;;;;;;;1.50;1.30;;;14.80;99.90;;;;;;4978838;28;20171;-76
2021/05/14 01:07:33;;;;;;;1.77;1.30;;;14.70;99.90;;;;;;4961571;28;20203;-76
2021/05/14 01:09:59;;;;;;;1.90;1.50;;;14.70;99.90;;;;;;4994078;28;20163;-76
2021/05/14 01:12:25;;;;;;;2.80;1.25;;;14.70;99.90;;;;;;4961538;28;20175;-76
2021/05/14 01:14:50;;;;;;;1.70;1.50;;;14.60;99.90;;;;;;4977586;28;20206;-76
2021/05/14 01:17:16;;;;;;;3.50;1.40;;;14.60;99.90;;;;;;4998957;28;20218;-77
2021/05/14 01:19:42;;;;;;;2.10;1.17;;;14.50;99.90;;;;;;4994932;28;20575;-77
2021/05/14 01:22:08;;;;;;;1.93;1.60;;;14.50;99.90;;;;;;4995210;28;20194;-77
2021/05/14 01:24:34;;;;;;;5.63;1.83;;;14.40;99.90;;;;;;4977519;28;20186;-77
2021/05/14 01:27:00;;;;;;;1.90;1.30;;;14.40;99.90;;;;;;4994467;28;20926;-77
2021/05/14 01:29:26;;;;;;;2.67;1.58;;;14.40;99.90;;;;;;4977722;28;20217;-77
2021/05/14 01:31:52;;;;;;;2.03;1.60;;;14.30;99.90;;;;;;4995191;28;20597;-77
2021/05/14 01:34:18;;;;;;;1.60;1.40;;;14.30;99.90;;;;;;4995115;28;20617;-77
2021/05/14 01:36:44;;;;;;;3.17;1.70;;;14.30;99.90;;;;;;4961519;28;20604;-77
2021/05/14 01:39:11;;;;;;;2.07;1.43;;;14.30;99.90;;;;;;4999286;28;20225;-77
2021/05/14 01:41:38;;;;;;;3.35;1.20;;;14.20;99.90;;;;;;4977543;28;20578;-78
2021/05/14 01:44:05;;;;;;;1.55;1.10;;;14.20;99.90;;;;;;4995431;28;20287;-77
2021/05/14 01:46:31;;;;;;;1.50;1.10;;;14.20;99.90;;;;;;4977954;28;20178;-77
2021/05/14 01:48:56;;;;;;;1.80;1.23;;;14.20;99.90;;;;;;4978572;28;20191;-77
2021/05/14 01:51:23;;;;;;;1.93;1.30;;;14.20;99.90;;;;;;4994950;28;20171;-77
2021/05/14 01:53:50;;;;;;;1.40;1.00;;;14.10;99.90;;;;;;4977420;28;20163;-77
2021/05/14 01:56:16;;;;;;;1.67;1.15;;;14.10;99.90;;;;;;4994494;28;20175;-77
2021/05/14 01:58:41;;;;;;;1.80;1.20;;;14.10;99.90;;;;;;4994404;28;20198;-77
2021/05/14 02:01:08;;;;;;;1.67;1.10;;;14.10;99.90;;;;;;4971255;28;20239;-77
2021/05/14 02:03:34;;;;;;;1.92;1.20;;;14.10;99.90;;;;;;4984964;28;20303;-77
2021/05/14 02:06:00;;;;;;;1.97;1.20;;;14.10;99.90;;;;;;4968936;28;20242;-77
2021/05/14 02:08:26;;;;;;;2.10;1.20;;;14.00;99.90;;;;;;4977121;28;20182;-77
2021/05/14 02:10:52;;;;;;;2.10;1.43;;;14.00;99.90;;;;;;4976834;28;20226;-77
2021/05/14 02:13:17;;;;;;;2.13;1.10;;;14.00;99.90;;;;;;4994921;28;20167;-77
2021/05/14 02:15:43;;;;;;;2.13;1.30;;;13.90;99.90;;;;;;4982772;28;20202;-78
2021/05/14 02:18:09;;;;;;;1.60;1.20;;;13.90;99.90;;;;;;4991906;28;20194;-78
2021/05/14 02:20:35;;;;;;;2.00;1.80;;;13.90;99.90;;;;;;4986910;28;20183;-77
2021/05/14 02:23:01;;;;;;;3.10;1.40;;;13.90;99.90;;;;;;4988048;28;20599;-78
2021/05/14 02:25:26;;;;;;;2.70;2.08;;;13.80;99.90;;;;;;4966464;28;20992;-77
2021/05/14 02:27:52;;;;;;;1.90;1.60;;;13.80;99.90;;;;;;4958987;28;20191;-76
2021/05/14 02:30:21;;;;;;;2.63;2.43;;;13.80;99.90;;;;;;4963130;28;20172;-77
2021/05/14 02:32:47;;;;;;;2.00;1.80;;;13.70;99.90;;;;;;4981681;28;20631;-77
2021/05/14 02:35:13;;;;;;;2.60;2.05;;;13.70;99.90;;;;;;4979824;28;20235;-77
2021/05/14 02:37:39;;;;;;;1.88;1.67;;;13.70;99.90;;;;;;4964027;28;20199;-77
2021/05/14 02:40:06;;;;;;;1.80;1.60;;;13.70;99.90;;;;;;4980067;28;20219;-77
2021/05/14 02:42:32;;;;;;;1.85;1.65;;;13.70;99.90;;;;;;4962990;28;20587;-77
2021/05/14 02:44:57;;;;;;;1.90;1.33;;;13.60;99.90;;;;;;4978853;28;20250;-77
2021/05/14 02:47:23;;;;;;;2.67;1.60;;;13.60;99.90;;;;;;4962594;28;20595;-77
2021/05/14 02:49:49;;;;;;;1.70;1.50;;;13.60;99.90;;;;;;4981119;28;20240;-77
2021/05/14 02:52:15;;;;;;;2.47;1.93;;;13.60;99.90;;;;;;4963436;28;20184;-77
2021/05/14 02:54:41;;;;;;;2.80;2.00;;;13.60;99.90;;;;;;4977030;28;20612;-77
2021/05/14 02:57:06;;;;;;;2.17;1.30;;;13.60;99.90;;;;;;4956139;28;20204;-77
2021/05/14 02:59:33;;;;;;;2.17;1.23;;;13.60;99.90;;;;;;4956545;28;20211;-77
2021/05/14 03:01:59;;;;;;;3.42;1.40;;;13.50;99.90;;;;;;4956501;28;20634;-77
2021/05/14 03:04:25;;;;;;;1.50;1.20;;;13.50;99.90;;;;;;4973906;28;20259;-77
2021/05/14 03:06:51;;;;;;;2.03;1.63;;;13.50;99.90;;;;;;4939856;28;20183;-77
2021/05/14 03:09:16;;;;;;;1.80;1.23;;;13.50;99.90;;;;;;4956091;28;20172;-77
2021/05/14 03:11:42;;;;;;;1.50;1.20;;;13.50;99.90;;;;;;4973553;28;20555;-77
2021/05/14 03:14:08;;;;;;;2.90;1.97;;;13.40;99.90;;;;;;4956168;28;20180;-77
2021/05/14 03:16:35;;;;;;;2.27;1.67;;;13.40;99.90;;;;;;4955613;28;20211;-77
2021/05/14 03:19:01;;;;;;;1.60;1.30;;;13.30;99.90;;;;;;4974163;28;20615;-77
2021/05/14 03:21:29;;;;;;;3.08;1.90;;;13.30;99.90;;;;;;4956651;28;20652;-77
2021/05/14 03:23:54;;;;;;;2.33;1.10;;;13.20;99.90;;;;;;4974076;28;20188;-77
2021/05/14 03:26:20;;;;;;;2.83;1.50;;;13.20;99.90;;;;;;4974179;28;20174;-77
2021/05/14 03:28:46;;;;;;;2.37;1.33;;;13.20;99.90;;;;;;4957177;28;20200;-77
2021/05/14 03:31:11;;;;;;;2.23;1.30;;;13.10;99.90;;;;;;4978684;28;20231;-78
2021/05/14 03:33:37;;;;;;;1.73;1.63;;;13.10;99.90;;;;;;4972987;28;20171;-77
2021/05/14 03:36:03;;;;;;;2.00;1.53;;;13.10;99.90;;;;;;4956028;28;20628;-77
2021/05/14 03:38:33;;;;;;;1.73;1.40;;;13.00;99.90;;;;;;4972674;28;20624;-77
2021/05/14 03:41:01;;;;;;;1.80;1.48;;;13.00;99.90;;;;;;4955835;28;20310;-77
2021/05/14 03:43:27;;;;;;;1.92;1.40;;;13.00;99.90;;;;;;4955710;28;20183;-77
2021/05/14 03:45:53;;;;;;;2.35;1.70;;;13.00;99.90;;;;;;4955560;28;20211;-76
2021/05/14 03:48:19;;;;;;;2.07;1.50;;;13.00;99.90;;;;;;4972769;28;20697;-77
2021/05/14 03:50:50;;;;;;;2.30;1.47;;;13.00;99.90;;;;;;4955793;28;20583;-77
2021/05/14 03:53:21;;;;;;;2.13;1.40;;;13.00;99.90;;;;;;4956136;28;20168;-77
2021/05/14 03:55:47;;;;;;;1.75;1.10;;;13.00;99.90;;;;;;4955874;28;20176;-77
2021/05/14 03:58:13;;;;;;;1.42;1.10;;;13.00;99.90;;;;;;4955059;28;20203;-76
2021/05/14 04:00:39;;;;;;;2.73;1.17;;;13.00;99.90;;;;;;4955443;28;20270;-77
2021/05/14 04:03:06;;;;;;;2.63;1.58;;;13.00;99.90;;;;;;4955851;28;20572;-76
2021/05/14 04:05:33;;;;;;;1.70;0.90;;;12.90;99.90;;;;;;4955737;28;20564;-77
2021/05/14 04:07:59;;;;;;;2.20;1.20;;;13.00;99.90;;;;;;4978389;28;20202;-76
2021/05/14 04:10:37;;;;;;;1.87;1.10;;;13.00;99.90;;;;;;4972704;28;20656;-76
2021/05/14 04:15:47;;;;;;;1.40;1.00;;;13.00;99.90;;;;;;4955619;28;20175;-77
2021/05/14 04:18:13;;;;;;;1.93;1.13;;;13.00;99.90;;;;;;4955734;28;20291;-77
2021/05/14 04:20:38;;;;;;;2.00;0.90;;;13.00;99.90;;;;;;4975017;28;20528;-77
2021/05/14 04:23:04;;;;;;;1.80;0.97;;;13.00;99.90;;;;;;4974156;28;20176;-76
2021/05/14 04:25:31;;;;;;;3.00;1.23;;;13.00;99.90;;;;;;4973092;28;20731;-76
2021/05/14 04:27:57;;;;;;;2.50;1.20;;;13.00;99.90;;;;;;4955002;28;21607;-76
2021/05/14 04:30:23;;;;;;;2.20;1.10;;;13.00;99.90;;;;;;4955548;28;20285;-76
2021/05/14 04:32:49;;;;;;;1.70;0.90;;;13.00;99.90;;;;;;4972548;28;20972;-76
2021/05/14 04:35:15;;;;;;;4.03;1.37;;;13.00;99.90;;;;;;4972763;28;20578;-77
2021/05/14 04:37:40;;;;;;;2.63;1.10;;;13.10;99.90;;;;;;4972304;28;20521;-77
2021/05/14 04:40:07;;;;;;;1.87;1.20;;;13.10;99.90;;;;;;4955386;28;20176;-76
2021/05/14 04:42:32;;;;;;;3.75;1.33;;;13.10;99.90;;;;;;4972967;28;20215;-77
2021/05/14 04:44:58;;;;;;;3.00;1.03;;;13.20;99.90;;;;;;4984329;28;20192;-76
2021/05/14 04:47:24;;;;;;;1.80;1.13;;;13.20;99.90;;;;;;4958632;28;20198;-76
2021/05/14 04:49:49;;;;;;;2.17;0.90;;;13.20;99.90;;;;;;4976199;28;20311;-77
2021/05/14 04:52:19;;;;;;;1.60;0.90;;;13.30;99.90;;;;;;4976079;28;20180;-77
2021/05/14 04:54:46;;;;;;;2.00;1.02;;;13.30;99.90;;;;;;4975917;28;20180;-77
2021/05/14 04:57:13;;;;;;;4.97;1.25;;;13.40;99.90;;;;;;4975390;28;20234;-77
2021/05/14 04:59:39;;;;;;;1.85;1.00;;;13.40;99.90;;;;;;4958800;28;20172;-77
2021/05/14 05:02:07;;;;;;;1.50;1.00;;;13.50;99.90;;;;;;4976400;28;20172;-76
2021/05/14 05:04:36;;;;;;;1.55;1.15;;;13.50;99.90;;;;;;4976219;28;20286;-77
2021/05/14 05:07:04;;;;;;;2.83;1.10;;;13.60;99.90;;;;;;4976466;28;20567;-76
2021/05/14 05:09:29;;;;;;;1.50;1.10;;;13.70;99.90;;;;;;4976249;28;20187;-76
2021/05/14 05:11:55;;;;;;;3.17;0.97;;;13.70;99.90;;;;;;4976806;28;20568;-76
2021/05/14 05:14:21;;;;;;;3.30;0.90;;;13.80;99.90;;;;;;4976839;28;20582;-76
2021/05/14 05:16:47;;;;;;;2.47;1.07;;;13.90;99.90;;;;;;4959000;28;20571;-76
2021/05/14 05:19:13;;;;;;;1.60;0.97;;;14.00;99.90;;;;;;4962127;28;20613;-77
2021/05/14 05:21:39;;;;;;;1.73;1.27;;;14.00;99.90;;;;;;4954850;28;20610;-76
2021/05/14 05:24:05;;;;;;;3.67;1.40;;;14.10;99.90;;;;;;4959414;28;20199;-76
2021/05/14 05:26:30;;;;;;;1.70;1.02;;;14.20;99.90;;;;;;4958531;28;20539;-76
2021/05/14 05:28:56;;;;;;;4.63;1.10;;;14.20;99.90;;;;;;4975860;28;20183;-76
2021/05/14 05:31:22;;;;;;;1.87;1.10;;;14.30;99.90;;;;;;4958281;28;20201;-76
2021/05/14 05:33:47;;;;;;;1.60;1.00;;;14.40;99.90;;;;;;4943366;28;20299;-77
2021/05/14 05:36:13;;;;;;;2.07;1.10;;;14.50;99.90;;;;;;4958443;28;20164;-76
2021/05/14 05:38:39;;;;;;;1.60;0.90;;;14.50;99.90;;;;;;4957586;28;20599;-77
2021/05/14 05:41:05;;;;;;;2.27;1.00;;;14.60;99.90;;;;;;4975788;28;20671;-77
2021/05/14 05:43:30;;;;;;;1.70;1.23;;;14.70;99.90;;;;;;4975464;28;20203;-77
2021/05/14 05:45:56;;;;;;;2.33;1.00;;;14.80;99.90;;;;;;4975407;28;20227;-76
2021/05/14 05:48:22;;;;;;;1.70;1.20;;;14.90;99.90;;;;;;4957414;28;20198;-76
2021/05/14 05:50:49;;;;;;;1.60;1.03;;;15.00;99.90;;;;;;4942794;28;20703;-76
2021/05/14 05:53:15;;;;;;;3.17;1.10;;;15.20;99.90;;;;;;4958208;28;20571;-77
2021/05/14 05:55:42;;;;;;;1.97;1.10;;;15.40;99.90;;;;;;4974729;28;20748;-77
2021/05/14 05:58:09;;;;;;;1.87;0.93;;;15.60;99.90;;;;;;4983279;28;20623;-76
2021/05/14 06:00:35;;;;;;;2.30;1.10;;;15.90;99.90;;;;;;4975120;28;20589;-76
2021/05/14 06:03:02;;;;;;;3.07;1.13;;;16.20;99.90;;;;;;4974547;28;20666;-76
2021/05/14 06:05:29;;;;;;;2.40;1.20;;;16.60;99.90;;;;;;4957339;28;20294;-77
2021/05/14 06:07:54;;;;;;;1.90;1.07;;;17.00;99.90;;;;;;4957314;28;20650;-76
2021/05/14 06:10:20;;;;;;;1.97;0.93;;;17.40;99.90;;;;;;4974699;28;20591;-76
2021/05/14 06:12:46;;;;;;;1.90;0.80;;;17.80;99.90;;;;;;4974690;28;20168;-75
2021/05/14 06:15:12;;;;;;;2.77;1.57;;;18.00;99.90;;;;;;4975394;28;20576;-75
2021/05/14 06:17:42;;;;;;;4.13;0.93;;;18.20;99.90;;;;;;4977507;28;20191;-76
2021/05/14 06:20:11;;;;;;;2.80;0.90;;;18.30;99.90;;;;;;4974809;28;20575;-77
2021/05/14 06:22:37;;;;;;;4.53;0.90;;;18.40;99.90;;;;;;4976892;28;20567;-76
2021/05/14 06:25:04;;;;;;;1.87;0.90;;;18.40;99.90;;;;;;4974506;28;20623;-76
2021/05/14 06:27:30;;;;;;;1.60;0.80;;;18.50;99.90;;;;;;4957176;28;20955;-77
2021/05/14 06:29:56;;;;;;;3.00;1.30;;;18.60;99.90;;;;;;4974767;28;20567;-77
2021/05/14 06:32:22;;;;;;;3.57;1.00;;;18.70;99.90;;;;;;4941596;28;20567;-77
2021/05/14 06:34:49;;;;;;;2.00;1.00;;;18.70;99.90;;;;;;4986068;28;20175;-77
2021/05/14 06:37:15;;;;;;;1.70;0.80;;;18.80;99.90;;;;;;4976702;28;21253;-77
2021/05/14 06:39:40;;;;;;;1.70;0.97;;;18.90;99.90;;;;;;4957401;28;20662;-77
2021/05/14 06:42:06;;;;;;;2.13;0.80;;;18.90;99.90;;;;;;4974655;28;20211;-76
2021/05/14 06:44:32;;;;;;;1.60;0.90;;;18.90;99.90;;;;;;4975308;28;20196;-77
2021/05/14 06:46:58;;;;;;;3.30;1.10;;;19.10;99.90;;;;;;4974473;28;20178;-76
2021/05/14 06:49:24;;;;;;;4.83;1.20;;;19.30;99.90;;;;;;4974783;28;20258;-76
2021/05/14 06:51:49;;;;;;;2.30;1.00;;;19.50;99.90;;;;;;4957383;28;20663;-76
2021/05/14 06:54:15;;;;;;;4.17;0.80;;;19.70;99.90;;;;;;4974939;28;20588;-76
2021/05/14 06:56:41;;;;;;;1.90;0.90;;;20.00;99.70;;;;;;4974235;28;20666;-76
2021/05/14 06:59:07;;;;;;;2.20;0.90;;;20.20;99.50;;;;;;4975330;28;20615;-77
2021/05/14 07:01:33;;;;;;;2.17;0.90;;;20.50;99.30;;;;;;4983682;28;20571;-77
2021/05/14 07:03:59;;;;;;;2.40;1.00;;;20.70;99.00;;;;;;4978694;28;20202;-78
2021/05/14 07:06:24;;;;;;;1.83;1.00;;;21.00;98.80;;;;;;4986557;28;20756;-78
2021/05/14 07:08:50;;;;;;;2.80;0.80;;;21.40;98.90;;;;;;4991040;28;20603;-78
2021/05/14 07:11:19;;;;;;;1.57;1.00;;;21.80;98.60;;;;;;4991191;28;20172;-76
2021/05/14 07:13:45;;;;;;;5.23;0.90;;;22.30;98.10;;;;;;4991509;28;20642;-78
2021/05/14 07:16:10;;;;;;;2.77;1.10;;;22.80;97.80;;;;;;4970948;28;20591;-78
2021/05/14 07:19:09;;;;;;;1.40;0.83;;;23.20;97.30;;;;;;4985760;28;20191;-79
2021/05/14 07:21:35;;;;;;;1.87;1.27;;;23.60;96.50;;;;;;4939740;28;20179;-78
2021/05/14 07:24:01;;;;;;;1.83;0.90;;;24.00;95.80;;;;;;4968114;28;20652;-78
2021/05/14 07:26:27;;;;;;;2.60;0.80;;;24.50;95.40;;;;;;4969076;28;20163;-78
2021/05/14 07:28:54;;;;;;;5.70;1.20;;;25.00;95.10;;;;;;4986163;28;20199;-78
2021/05/14 07:31:21;;;;;;;1.90;0.90;;;25.70;94.70;;;;;;4985814;28;20164;-78
2021/05/14 07:33:47;;;;;;;5.30;0.80;;;26.40;94.10;;;;;;4966457;28;20654;-78
2021/05/14 07:36:13;;;;;;;1.60;0.80;;;27.00;93.20;;;;;;4981521;28;20582;-78
2021/05/14 07:38:39;;;;;;;1.97;0.70;;;27.70;91.90;;;;;;4992775;28;20623;-78
2021/05/14 07:41:04;;;;;;;1.83;1.43;;;28.40;90.90;;;;;;4996548;28;20178;-78
2021/05/14 07:43:30;;;;;;;2.40;0.70;;;29.10;89.50;;;;;;4995946;28;20221;-78
2021/05/14 07:45:56;;;;;;;2.80;0.80;;;29.80;87.40;;;;;;4977862;28;20632;-79
2021/05/14 07:48:22;;;;;;;2.17;0.70;;;30.30;82.80;;;;;;5000135;28;20217;-79
2021/05/14 07:50:49;;;;;;;1.27;0.60;;;30.40;78.10;;;;;;4994782;28;20953;-79
2021/05/14 07:53:15;;;;;;;2.00;1.10;;;30.50;75.10;;;;;;4976095;28;20178;-79
2021/05/14 07:55:40;;;;;;;1.30;0.70;;;30.80;73.40;;;;;;4993132;28;20573;-79
2021/05/14 07:58:06;;;;;;;1.60;0.60;;;31.00;71.70;;;;;;4974979;28;20207;-79
2021/05/14 08:00:32;;;;;;;2.10;0.60;;;31.30;69.60;;;;;;4992765;28;20640;-80
2021/05/14 08:02:58;;;;;;;1.50;0.60;;;31.50;67.90;;;;;;4992746;28;20194;-79
2021/05/14 08:05:23;;;;;;;2.07;0.70;;;31.90;67.00;;;;;;4992199;28;20231;-79
2021/05/14 08:08:10;;;;;;;1.50;0.70;;;32.40;66.20;;;;;;4990691;28;20188;-79
2021/05/14 08:10:36;;;;;;;1.23;0.60;;;33.00;64.40;;;;;;4974940;28;20177;-79
2021/05/14 08:13:02;;;;;;;2.60;0.60;;;33.60;62.60;;;;;;4992882;28;20620;-77
2021/05/14 08:15:29;;;;;;;1.33;0.70;;;34.00;60.10;;;;;;4992807;28;20612;-79
2021/05/14 08:17:55;;;;;;;1.27;0.53;;;34.30;58.30;;;;;;4992440;28;20610;-78
2021/05/14 08:20:21;;;;;;;1.93;0.60;;;34.60;57.40;;;;;;4996221;28;20584;-78
2021/05/14 08:22:48;;;;;;;1.23;0.50;;;34.90;56.00;;;;;;4990661;28;20645;-78
2021/05/14 08:25:14;;;;;;;2.07;0.60;;;35.10;54.30;;;;;;4974702;28;20590;-78
2021/05/14 08:27:40;;;;;;;1.80;0.63;;;35.20;53.40;;;;;;4970614;28;20657;-78
2021/05/14 08:30:07;;;;;;;3.83;0.60;;;35.30;52.80;;;;;;4976401;28;20731;-78
2021/05/14 08:32:33;;;;;;;1.23;0.50;;;35.10;51.40;;;;;;4961772;28;20993;-78
2021/05/14 08:34:59;;;;;;;1.60;0.70;;;34.90;50.90;;;;;;4995983;28;20615;-78
2021/05/14 08:37:25;;;;;;;1.53;0.60;;;34.90;50.50;;;;;;4978150;28;20276;-78
2021/05/14 08:39:51;;;;;;;1.20;0.60;;;35.00;50.50;;;;;;4969603;28;20195;-78
2021/05/14 08:42:17;;;;;;;1.73;0.60;;;35.30;50.40;;;;;;4976508;28;20224;-77
2021/05/14 08:44:43;;;;;;;1.93;0.60;;;35.60;50.20;;;;;;4976554;28;20187;-78
2021/05/14 08:47:11;;;;;;;1.27;0.60;;;36.00;49.60;;;;;;4975718;28;20215;-78
2021/05/14 08:49:38;;;;;;;1.27;0.60;;;36.30;48.20;;;;;;4958733;28;20567;-77
2021/05/14 08:52:08;;;;;;;5.63;0.70;;;36.40;47.30;;;;;;4975912;28;20637;-77
2021/05/14 08:54:35;;;;;;;1.20;0.50;;;36.10;45.90;;;;;;4958748;28;20622;-78
2021/05/14 08:57:01;;;;;;;1.20;0.40;;;35.90;45.80;;;;;;4951686;28;21216;-77
2021/05/14 08:59:27;;;;;;;1.00;0.40;;;36.00;46.30;;;;;;4995160;28;20582;-78
2021/05/14 09:01:53;;;;;;;1.10;0.40;;;36.20;45.40;;;;;;4996066;28;20620;-78
2021/05/14 09:04:19;;;;;;;1.10;0.50;;;36.30;44.60;;;;;;4999390;28;20815;-77
2021/05/14 09:06:46;;;;;;;1.20;0.40;;;36.50;45.10;;;;;;4994608;28;20186;-77
2021/05/14 09:09:14;;;;;;;1.80;0.50;;;36.80;44.60;;;;;;4977513;28;20641;-78
2021/05/14 09:11:41;;;;;;;1.10;0.43;;;37.10;43.80;;;;;;4995114;28;20578;-77
2021/05/14 09:14:32;;;;;;;1.10;0.40;;;37.30;43.20;;;;;;4990751;28;21190;-78
2021/05/14 09:17:06;;;;;;;1.07;0.40;;;37.60;43.20;;;;;;4982159;28;20591;-78
2021/05/14 09:19:34;;;;;;;1.30;0.50;;;37.80;42.30;;;;;;4972377;28;20590;-78
2021/05/14 09:22:08;;;;;;;1.57;0.70;;;37.90;42.20;;;;;;4979744;28;20566;-77
2021/05/14 09:24:38;;;;;;;1.30;0.60;;;38.20;41.50;;;;;;4956086;28;20660;-78
2021/05/14 09:27:17;;;;;;;1.40;0.70;;;38.40;41.10;;;;;;4957988;28;20677;-78
2021/05/14 09:29:44;;;;;;;1.37;0.60;;;38.20;39.70;;;;;;4973859;28;20671;-78
2021/05/14 09:32:30;;;;;;;1.47;0.60;;;37.70;39.00;;;;;;4993165;28;20586;-78
2021/05/14 09:34:59;;;;;;;1.23;0.50;;;37.20;39.40;;;;;;4994615;28;21199;-78
2021/05/14 09:37:26;;;;;;;1.20;0.57;;;36.90;39.20;;;;;;4994022;28;20606;-78
2021/05/14 09:40:21;;;;;;;1.73;0.70;;;36.70;39.70;;;;;;4999724;28;20554;-78
2021/05/14 09:42:49;;;;;;;2.53;0.60;;;36.20;38.60;;;;;;4960832;28;20571;-78
2021/05/14 09:45:21;;;;;;;1.70;0.70;;;35.50;38.50;;;;;;4994326;28;20572;-78
2021/05/14 09:48:14;;;;;;;1.20;0.50;;;35.30;38.50;;;;;;4993729;28;20600;-78
2021/05/14 09:50:42;;;;;;;2.37;0.60;;;35.10;39.50;;;;;;4977027;28;20615;-78
2021/05/14 09:53:16;;;;;;;1.70;0.63;;;34.80;39.50;;;;;;4994280;28;20903;-78
2021/05/14 09:55:48;;;;;;;1.83;0.67;;;34.30;38.60;;;;;;4976659;28;20716;-78
2021/05/14 09:58:19;;;;;;;1.10;0.53;;;33.50;38.40;;;;;;4975954;28;20650;-78
2021/05/14 10:00:45;;;;;;;1.27;0.60;;;32.80;38.20;;;;;;4976860;28;20562;-78
2021/05/14 10:03:15;;;;;;;1.10;0.50;;;31.90;38.40;;;;;;4994178;28;20929;-78
2021/05/14 10:05:43;;;;;;;1.67;0.60;;;31.20;38.90;;;;;;4994083;28;20566;-78
2021/05/14 10:08:10;;;;;;;1.33;0.60;;;30.40;39.00;;;;;;4959862;28;20602;-78
2021/05/14 10:10:38;;;;;;;1.17;0.50;;;29.80;39.50;;;;;;4993768;28;20571;-77
2021/05/14 10:13:10;;;;;;;1.20;0.60;;;29.10;39.60;;;;;;4993831;28;20982;-77
2021/05/14 10:15:37;;;;;;;2.07;0.70;;;28.40;39.90;;;;;;4993946;28;21039;-77
2021/05/14 10:18:06;;;;;;;3.27;2.80;;;27.80;40.40;;;;;;4998603;28;20594;-77
2021/05/14 10:20:36;;;;;;;6.43;3.40;;;27.30;41.00;;;;;;4976016;28;20576;-77
2021/05/14 10:23:02;;;;;;;2.23;1.60;;;26.80;41.50;;;;;;4993708;28;20992;-77
2021/05/14 10:25:34;;;;;;;3.10;1.40;;;26.40;42.10;;;;;;4993504;28;20574;-77
2021/05/14 10:28:16;;;;;;;1.30;0.80;;;26.10;43.00;;;;;;4959543;28;20704;-77
2021/05/14 10:30:58;;;;;;;2.20;1.60;;;25.80;43.60;;;;;;4969859;28;20592;-77
2021/05/14 10:33:59;;;;;;;1.73;1.00;;;25.70;44.00;;;;;;4974022;28;20599;-77
2021/05/14 10:36:26;;;;;;;1.43;0.63;;;25.60;44.30;;;;;;4860692;29;20597;-77
2021/05/14 10:39:05;;;;;;;1.57;0.70;;;25.50;44.10;;;;;;4955427;28;20609;-77
2021/05/14 10:41:31;;;;;;;1.50;0.60;;;25.30;44.20;;;;;;4956051;28;20567;-77
2021/05/14 10:44:03;;;;;;;1.20;0.40;;;25.10;44.10;;;;;;4940387;28;21284;-77
2021/05/14 10:46:29;;;;;;;2.60;1.33;;;25.00;44.30;;;;;;4973376;28;20910;-77
2021/05/14 10:49:05;;;;;;;2.47;0.60;;;24.90;44.60;;;;;;4973711;28;21229;-78
2021/05/14 10:51:58;;;;;;;1.87;0.80;;;24.70;44.90;;;;;;4973700;28;20643;-77
2021/05/14 10:54:38;;;;;;;1.30;0.60;;;24.60;44.90;;;;;;4975602;28;20643;-77
2021/05/14 10:57:12;;;;;;;2.40;1.63;;;24.40;45.00;;;;;;4939898;28;20626;-76
2021/05/14 10:59:42;;;;;;;2.73;1.70;;;24.30;45.40;;;;;;4956612;28;21023;-76
2021/05/14 11:02:29;;;;;;;2.63;1.23;;;24.10;46.00;;;;;;4974362;28;20924;-77
2021/05/14 11:04:57;;;;;;;3.43;1.37;;;23.70;46.50;;;;;;4974715;28;20618;-77
2021/05/14 11:07:34;;;;;;;1.63;0.80;;;23.30;46.50;;;;;;4956861;28;20630;-77
2021/05/14 11:10:37;;;;;;;2.53;1.20;;;23.00;47.20;;;;;;4956900;28;20579;-76
2021/05/14 11:13:37;;;;;;;3.43;1.67;;;22.60;48.40;;;;;;4957101;28;20630;-76
2021/05/14 11:16:31;;;;;;;3.57;1.77;;;22.10;48.60;;;;;;4956242;28;21010;-77
2021/05/14 11:18:57;;;;;;;1.83;0.70;;;21.60;49.20;;;;;;4956485;28;20758;-76
2021/05/14 11:21:54;;;;;;;1.67;0.80;;;21.10;48.80;;;;;;4978341;28;20559;-76
2021/05/14 11:24:36;;;;;;;2.57;0.70;;;20.70;50.80;;;;;;4982332;28;20563;-76
2021/05/14 11:27:06;;;;;;;1.30;0.90;;;20.20;49.90;;;;;;4948337;28;20559;-76
2021/05/14 11:29:34;;;;;;;1.63;0.70;;;19.90;49.90;;;;;;4964600;28;20602;-77
2021/05/14 11:32:36;;;;;;;1.50;0.70;;;19.70;51.00;;;;;;4999142;28;20633;-76
2021/05/14 11:35:07;;;;;;;3.53;2.20;;;19.50;52.20;;;;;;4977269;28;21032;-76
2021/05/14 11:37:50;;;;;;;4.03;3.23;;;19.40;52.30;;;;;;4992039;28;20594;-76
2021/05/14 11:40:26;;;;;;;2.83;1.93;;;19.30;52.90;;;;;;4992518;28;20573;-76
2021/05/14 11:42:59;;;;;;;4.00;1.40;;;19.40;53.50;;;;;;4992428;28;20668;-76
2021/05/14 11:45:28;;;;;;;1.90;1.10;;;19.50;54.20;;;;;;4974983;28;21184;-77
2021/05/14 11:47:57;;;;;;;1.97;1.07;;;19.80;54.50;;;;;;4974260;28;20708;-77
2021/05/14 11:50:34;;;;;;;2.00;0.87;;;20.00;55.30;;;;;;4974804;28;20578;-77
2021/05/14 11:53:04;;;;;;;4.03;0.77;;;20.20;55.30;;;;;;4974226;28;20578;-77
2021/05/14 11:55:30;;;;;;;1.33;0.60;;;20.40;55.20;;;;;;4991989;28;21131;-77
2021/05/14 11:57:58;;;;;;;2.37;0.60;;;20.60;55.40;;;;;;4991447;28;20614;-77
2021/05/14 12:00:35;;;;;;;1.30;0.50;;;20.70;55.50;;;;;;4974824;28;20794;-78
2021/05/14 12:03:14;;;;;;;1.20;0.53;;;20.80;55.40;;;;;;4958664;28;20601;-77
2021/05/14 12:05:46;;;;;;;1.83;0.50;;;21.00;55.30;;;;;;4974803;28;20716;-78
2021/05/14 12:08:27;;;;;;;1.00;0.40;;;21.00;55.80;;;;;;4995757;28;20614;-77
2021/05/14 12:11:04;;;;;;;1.60;0.60;;;21.00;55.10;;;;;;4974764;28;20604;-79
2021/05/14 12:13:32;;;;;;;1.30;0.50;;;21.00;55.10;;;;;;4992336;28;20713;-79
2021/05/14 12:16:00;;;;;;;1.27;0.50;;;20.90;55.00;;;;;;4974744;28;21116;-79
2021/05/14 12:18:30;;;;;;;1.77;0.50;;;21.00;55.40;;;;;;4991446;28;21141;-79
2021/05/14 12:20:57;;;;;;;1.00;0.40;;;21.10;55.80;;;;;;4974556;28;20666;-79
2021/05/14 12:23:24;;;;;;;1.10;0.50;;;21.20;55.90;;;;;;4983691;28;20583;-78
2021/05/14 12:25:58;;;;;;;1.00;0.50;;;21.40;56.50;;;;;;4955071;28;20982;-80
2021/05/14 12:28:35;;;;;;;2.03;0.43;;;21.60;57.20;;;;;;4972099;28;20607;-78
2021/05/14 12:31:07;;;;;;;1.30;0.40;;;21.90;57.20;;;;;;4972789;28;20584;-79
2021/05/14 12:33:45;;;;;;;1.20;0.40;;;22.20;57.60;;;;;;4975242;28;20609;-77
2021/05/14 12:36:11;;;;;;;1.20;0.50;;;22.50;57.60;;;;;;4991954;28;20613;-78
2021/05/14 12:39:16;;;;;;;1.30;0.40;;;22.80;57.30;;;;;;4980163;28;20618;-79
2021/05/14 12:42:02;;;;;;;1.20;0.40;;;22.90;55.60;;;;;;4959057;28;20187;-79
2021/05/14 12:44:35;;;;;;;1.50;0.50;;;23.10;54.80;;;;;;4976301;28;20590;-79
2021/05/14 12:47:11;;;;;;;1.10;0.40;;;23.20;53.90;;;;;;4974368;28;20693;-76
2021/05/14 12:49:53;;;;;;;1.20;0.30;;;23.10;53.10;;;;;;4972512;28;20582;-78
2021/05/14 12:52:28;;;;;;;1.00;0.30;;;23.00;52.30;;;;;;4972863;28;21208;-77
2021/05/14 12:55:02;;;;;;;0.97;0.40;;;22.80;51.90;;;;;;4958333;28;20685;-78
2021/05/14 12:57:30;;;;;;;1.20;0.40;;;22.70;51.90;;;;;;4963419;28;21043;-78
2021/05/14 12:59:57;;;;;;;1.30;0.50;;;22.50;51.90;;;;;;4954841;28;20551;-78